Time;durP1;ratioP1;P1;durP2;ratioP2;P2;SDS_P1;SDS_P2;PMS_P1;PMS_P2;Temp;Humidity;BMP_temperature;BMP_pressure;BME280_temperature;BME280_humidity;BME280_pressure;Samples;Min_cycle;Max_cycle;Signal;HPM_P1;HPM_P2
2021/12/03 00:02:16;;;;;;;43.90;40.70;;;3.40;99.90;;;;;;5084046;28;20735;-63
2021/12/03 00:05:06;;;;;;;44.33;41.23;;;3.50;99.90;;;;;;5082695;28;20240;-65
2021/12/03 00:07:58;;;;;;;45.23;42.17;;;3.50;99.90;;;;;;5088084;28;20231;-63
2021/12/03 00:10:53;;;;;;;46.20;42.80;;;3.50;99.90;;;;;;5092064;28;21286;-64
2021/12/03 00:13:46;;;;;;;43.60;40.73;;;3.40;99.90;;;;;;5090300;28;20230;-64
2021/12/03 00:16:37;;;;;;;44.60;41.67;;;3.40;99.90;;;;;;5087337;28;20282;-62
2021/12/03 00:19:25;;;;;;;45.33;42.40;;;3.40;99.90;;;;;;5085106;28;20233;-64
2021/12/03 00:22:14;;;;;;;45.70;42.50;;;3.40;99.90;;;;;;5083350;28;20910;-65
2021/12/03 00:25:04;;;;;;;43.90;41.00;;;3.40;99.90;;;;;;5085661;28;20214;-65
2021/12/03 00:27:52;;;;;;;44.60;41.17;;;3.50;99.90;;;;;;5081614;28;20346;-63
2021/12/03 00:30:41;;;;;;;46.37;43.17;;;3.40;99.90;;;;;;5081459;28;20235;-63
2021/12/03 00:33:32;;;;;;;43.60;40.67;;;3.50;99.90;;;;;;5084511;28;20224;-65
2021/12/03 00:36:20;;;;;;;43.87;40.83;;;3.50;99.90;;;;;;5071166;28;20231;-62
2021/12/03 00:39:09;;;;;;;42.80;39.77;;;3.50;99.90;;;;;;5074369;28;20224;-63
2021/12/03 00:42:00;;;;;;;45.07;41.67;;;3.40;99.90;;;;;;5070236;28;21072;-64
2021/12/03 00:44:52;;;;;;;45.10;42.30;;;3.30;99.90;;;;;;5084825;28;20281;-62
2021/12/03 00:47:42;;;;;;;43.33;40.53;;;3.30;99.90;;;;;;5082309;28;20236;-63
2021/12/03 00:50:34;;;;;;;46.53;43.23;;;3.20;99.90;;;;;;5085199;28;20225;-65
2021/12/03 00:53:22;;;;;;;45.63;42.53;;;3.10;99.90;;;;;;5081038;28;20220;-62
2021/12/03 00:56:12;;;;;;;46.40;43.40;;;3.10;99.90;;;;;;5079681;28;20313;-64
2021/12/03 00:59:00;;;;;;;46.53;43.43;;;3.10;99.90;;;;;;5070049;28;20586;-65
2021/12/03 01:01:49;;;;;;;46.90;43.60;;;3.20;99.90;;;;;;5077568;28;20603;-64
2021/12/03 01:04:38;;;;;;;46.87;43.67;;;3.10;99.90;;;;;;5082477;28;20212;-64
2021/12/03 01:07:28;;;;;;;45.13;41.90;;;3.10;99.90;;;;;;5082855;28;20221;-62
2021/12/03 01:10:17;;;;;;;45.30;42.03;;;3.20;99.90;;;;;;5087380;28;20543;-65
2021/12/03 01:13:07;;;;;;;47.27;43.97;;;3.10;99.90;;;;;;5087134;28;20216;-63
2021/12/03 01:15:56;;;;;;;47.27;44.17;;;3.10;99.90;;;;;;5081027;28;20222;-65
2021/12/03 01:18:46;;;;;;;45.03;42.00;;;2.90;99.90;;;;;;5087611;28;20385;-63
2021/12/03 01:21:35;;;;;;;44.40;41.47;;;3.00;99.90;;;;;;5084386;28;20234;-64
2021/12/03 01:24:25;;;;;;;45.57;42.17;;;3.10;99.90;;;;;;5076304;28;20229;-64
2021/12/03 01:27:13;;;;;;;46.80;43.80;;;3.10;99.90;;;;;;5091535;28;20237;-63
2021/12/03 01:30:03;;;;;;;47.00;43.83;;;3.10;99.90;;;;;;5084928;28;20223;-64
2021/12/03 01:32:52;;;;;;;45.70;42.70;;;3.20;99.90;;;;;;5070471;28;20717;-64
2021/12/03 01:35:41;;;;;;;44.73;41.67;;;3.20;99.90;;;;;;5084835;28;20218;-66
2021/12/03 01:38:30;;;;;;;46.30;43.03;;;3.20;99.90;;;;;;5081787;28;20699;-64
2021/12/03 01:41:20;;;;;;;46.97;43.90;;;3.20;99.90;;;;;;5080657;28;20308;-66
2021/12/03 01:44:10;;;;;;;45.30;42.20;;;3.30;99.90;;;;;;5080287;28;20295;-63
2021/12/03 01:46:58;;;;;;;46.20;43.37;;;3.40;99.90;;;;;;5067161;28;20216;-64
2021/12/03 01:49:47;;;;;;;42.57;39.87;;;3.40;99.90;;;;;;5073822;28;20810;-62
2021/12/03 01:52:36;;;;;;;44.73;41.70;;;3.30;99.90;;;;;;5070709;28;20215;-63
2021/12/03 01:55:25;;;;;;;46.53;43.33;;;3.30;99.90;;;;;;5087028;28;20756;-62
2021/12/03 01:58:16;;;;;;;45.53;42.70;;;3.30;99.90;;;;;;5080541;28;20366;-65
2021/12/03 02:01:09;;;;;;;45.97;42.87;;;3.40;99.90;;;;;;5065141;28;20229;-63
2021/12/03 02:04:00;;;;;;;44.50;41.53;;;3.30;99.90;;;;;;5067387;28;20235;-62
2021/12/03 02:06:52;;;;;;;47.47;44.27;;;3.30;99.90;;;;;;5078321;28;20224;-64
2021/12/03 02:09:41;;;;;;;45.57;42.67;;;3.30;99.90;;;;;;5077711;28;20253;-63
2021/12/03 02:12:30;;;;;;;47.43;44.20;;;3.30;99.90;;;;;;5080410;28;20223;-64
2021/12/03 02:15:20;;;;;;;46.53;43.17;;;3.30;99.90;;;;;;5079690;28;20312;-65
2021/12/03 02:18:10;;;;;;;44.67;41.70;;;3.30;99.90;;;;;;5065706;28;20234;-63
2021/12/03 02:21:04;;;;;;;46.57;43.50;;;3.30;99.90;;;;;;5082694;28;20850;-64
2021/12/03 02:23:53;;;;;;;44.10;41.20;;;3.30;99.90;;;;;;5064507;28;20626;-65
2021/12/03 02:26:42;;;;;;;45.97;42.83;;;3.30;99.90;;;;;;5079959;28;20223;-65
2021/12/03 02:29:31;;;;;;;45.47;42.37;;;3.30;99.90;;;;;;5080337;28;20216;-66
2021/12/03 02:32:20;;;;;;;46.50;43.20;;;3.30;99.90;;;;;;5079625;28;20221;-64
2021/12/03 02:35:10;;;;;;;46.43;43.43;;;3.10;99.90;;;;;;5084854;28;20216;-64
2021/12/03 02:38:00;;;;;;;46.93;43.80;;;3.10;99.90;;;;;;5065565;28;20241;-65
2021/12/03 02:40:53;;;;;;;44.47;41.23;;;3.10;99.90;;;;;;5071614;28;20219;-63
2021/12/03 02:43:42;;;;;;;46.20;43.30;;;3.20;99.90;;;;;;5076207;28;20275;-64
2021/12/03 02:46:31;;;;;;;46.33;43.17;;;3.10;99.90;;;;;;5078094;28;21541;-63
2021/12/03 02:49:19;;;;;;;46.10;42.93;;;3.10;99.90;;;;;;5067858;28;20676;-64
2021/12/03 02:52:10;;;;;;;43.47;40.53;;;3.10;99.90;;;;;;5066260;28;20230;-65
2021/12/03 02:55:00;;;;;;;44.20;41.30;;;2.90;99.90;;;;;;5064123;28;20223;-65
2021/12/03 02:57:49;;;;;;;45.97;43.03;;;2.90;99.90;;;;;;5066134;28;20224;-64
2021/12/03 03:00:39;;;;;;;44.87;41.83;;;2.90;99.90;;;;;;5079621;28;20219;-65
2021/12/03 03:03:28;;;;;;;45.63;42.67;;;2.90;99.90;;;;;;5078603;28;20222;-64
2021/12/03 03:06:17;;;;;;;44.50;41.57;;;2.80;99.90;;;;;;5083571;28;20239;-64
2021/12/03 03:09:08;;;;;;;45.80;42.70;;;2.90;99.90;;;;;;5081280;28;20226;-64
2021/12/03 03:11:58;;;;;;;44.63;41.63;;;2.90;99.90;;;;;;5081077;28;20211;-66
2021/12/03 03:14:51;;;;;;;44.33;41.43;;;2.90;99.90;;;;;;5081958;28;20217;-64
2021/12/03 03:17:41;;;;;;;44.90;41.90;;;2.80;99.90;;;;;;5059728;28;20694;-65
2021/12/03 03:20:29;;;;;;;44.53;41.53;;;2.80;99.90;;;;;;5077115;28;20266;-64
2021/12/03 03:23:19;;;;;;;44.73;41.67;;;2.80;99.90;;;;;;5076200;28;20239;-65
2021/12/03 03:26:08;;;;;;;44.87;41.67;;;2.80;99.90;;;;;;5079425;28;20242;-65
2021/12/03 03:28:59;;;;;;;46.20;43.13;;;2.70;99.90;;;;;;5079744;28;20214;-65
2021/12/03 03:31:48;;;;;;;47.33;44.10;;;2.80;99.90;;;;;;5081155;28;20218;-65
2021/12/03 03:34:37;;;;;;;45.43;42.43;;;2.80;99.90;;;;;;5084243;28;20679;-60
2021/12/03 03:37:26;;;;;;;45.97;42.63;;;2.70;99.90;;;;;;5072448;28;20227;-65
2021/12/03 03:40:15;;;;;;;44.03;41.13;;;2.80;99.90;;;;;;5085875;28;20219;-64
2021/12/03 03:43:06;;;;;;;46.03;42.83;;;2.70;99.90;;;;;;5094850;27;20215;-65
2021/12/03 03:45:56;;;;;;;45.23;42.23;;;2.70;99.90;;;;;;5084997;28;20219;-63
2021/12/03 03:48:45;;;;;;;44.67;41.67;;;2.80;99.90;;;;;;5082547;28;20228;-65
2021/12/03 03:51:34;;;;;;;45.67;42.47;;;2.80;99.90;;;;;;5081871;28;21458;-64
2021/12/03 03:54:23;;;;;;;46.97;44.00;;;2.80;99.90;;;;;;5086328;28;20227;-65
2021/12/03 03:57:12;;;;;;;46.17;43.17;;;2.70;99.90;;;;;;5085155;28;20220;-63
2021/12/03 04:00:01;;;;;;;46.13;43.00;;;2.70;99.90;;;;;;5084104;28;20223;-64
2021/12/03 04:03:00;;;;;;;48.13;44.93;;;2.70;99.90;;;;;;5086048;28;20219;-64
2021/12/03 04:05:49;;;;;;;47.80;44.60;;;2.60;99.90;;;;;;5080702;28;20709;-64
2021/12/03 04:08:42;;;;;;;47.60;44.37;;;2.60;99.90;;;;;;5090640;27;20228;-64
2021/12/03 04:11:30;;;;;;;46.33;43.17;;;2.70;99.90;;;;;;5078456;28;20234;-64
2021/12/03 04:14:19;;;;;;;47.73;44.43;;;2.70;99.90;;;;;;5082909;28;20220;-64
2021/12/03 04:17:08;;;;;;;46.30;43.23;;;2.70;99.90;;;;;;5083003;28;20229;-64
2021/12/03 04:19:58;;;;;;;46.57;43.33;;;2.70;99.90;;;;;;5081679;28;20240;-67
2021/12/03 04:22:47;;;;;;;46.03;42.73;;;2.70;99.90;;;;;;5083613;28;20218;-65
2021/12/03 04:25:36;;;;;;;46.83;43.50;;;2.60;99.90;;;;;;5080653;28;20225;-65
2021/12/03 04:28:25;;;;;;;46.27;43.33;;;2.60;99.90;;;;;;5078091;28;20245;-65
2021/12/03 04:31:14;;;;;;;46.83;43.50;;;2.50;99.90;;;;;;5080541;28;20225;-65
2021/12/03 04:34:03;;;;;;;45.20;41.90;;;2.50;99.90;;;;;;5076254;28;20555;-65
2021/12/03 04:36:53;;;;;;;47.70;44.40;;;2.50;99.90;;;;;;5082846;28;20234;-64
2021/12/03 04:39:41;;;;;;;49.67;46.37;;;2.50;99.90;;;;;;5085022;28;20232;-64
2021/12/03 04:42:30;;;;;;;47.47;44.17;;;2.50;99.90;;;;;;5085143;28;20761;-65
2021/12/03 04:45:22;;;;;;;46.23;43.07;;;2.50;99.90;;;;;;5081963;28;20528;-65
2021/12/03 04:48:11;;;;;;;45.83;42.83;;;2.50;99.90;;;;;;5081670;28;20223;-65
2021/12/03 04:51:00;;;;;;;44.63;41.63;;;2.60;99.90;;;;;;5085309;28;20219;-66
2021/12/03 04:53:50;;;;;;;45.93;42.40;;;2.60;99.90;;;;;;5083651;28;20310;-65
2021/12/03 04:56:39;;;;;;;46.67;43.60;;;2.60;99.90;;;;;;5082215;28;20670;-64
2021/12/03 04:59:27;;;;;;;46.03;42.80;;;2.70;99.90;;;;;;5084365;28;20235;-63
2021/12/03 05:02:18;;;;;;;46.17;43.07;;;2.80;99.90;;;;;;5081634;28;20224;-64
2021/12/03 05:05:07;;;;;;;45.30;42.17;;;2.90;99.90;;;;;;5079680;28;20213;-64
2021/12/03 05:08:01;;;;;;;47.53;44.20;;;2.80;99.90;;;;;;5106892;27;20235;-63
2021/12/03 05:10:51;;;;;;;46.47;43.57;;;2.80;99.90;;;;;;5085745;28;20253;-63
2021/12/03 05:13:40;;;;;;;47.50;44.07;;;2.80;99.90;;;;;;5078213;28;20688;-62
2021/12/03 05:16:29;;;;;;;47.30;44.30;;;2.70;99.90;;;;;;5080127;28;20220;-63
2021/12/03 05:19:18;;;;;;;48.00;44.83;;;2.80;99.90;;;;;;5081818;28;20232;-63
2021/12/03 05:22:07;;;;;;;46.03;42.70;;;2.80;99.90;;;;;;5082424;28;20234;-64
2021/12/03 05:24:56;;;;;;;45.80;42.93;;;2.80;99.90;;;;;;5085252;28;20232;-63
2021/12/03 05:27:46;;;;;;;45.93;43.10;;;2.90;99.90;;;;;;5080723;28;20223;-63
2021/12/03 05:30:35;;;;;;;47.87;44.87;;;2.90;99.90;;;;;;5080216;28;20314;-64
2021/12/03 05:33:24;;;;;;;45.23;42.23;;;2.90;99.90;;;;;;5082293;28;20719;-63
2021/12/03 05:36:13;;;;;;;45.97;43.17;;;2.90;99.90;;;;;;5082824;28;20225;-64
2021/12/03 05:39:01;;;;;;;46.07;43.17;;;2.90;99.90;;;;;;5077495;28;20224;-65
2021/12/03 05:41:53;;;;;;;45.50;42.70;;;2.90;99.90;;;;;;5079880;28;20220;-66
2021/12/03 05:44:43;;;;;;;47.20;44.30;;;2.90;99.90;;;;;;5079079;28;20238;-66
2021/12/03 05:47:32;;;;;;;48.00;45.03;;;2.90;99.90;;;;;;5079190;28;20226;-64
2021/12/03 05:50:21;;;;;;;47.00;43.87;;;2.90;99.90;;;;;;5084055;28;20660;-64
2021/12/03 05:53:10;;;;;;;48.07;45.03;;;2.90;99.90;;;;;;5079872;28;20227;-66
2021/12/03 05:55:58;;;;;;;45.77;42.87;;;3.00;99.90;;;;;;5083886;28;20544;-66
2021/12/03 05:58:48;;;;;;;46.73;43.83;;;3.00;99.90;;;;;;5084586;28;20240;-64
2021/12/03 06:01:38;;;;;;;46.73;43.63;;;2.90;99.90;;;;;;5078063;28;20224;-64
2021/12/03 06:04:29;;;;;;;47.67;44.50;;;3.00;99.90;;;;;;5093656;27;20313;-64
2021/12/03 06:07:17;;;;;;;47.07;44.03;;;2.90;99.90;;;;;;5084940;28;20235;-65
2021/12/03 06:10:07;;;;;;;46.13;43.33;;;3.00;99.90;;;;;;5085948;28;20210;-63
2021/12/03 06:12:56;;;;;;;42.83;40.23;;;3.00;99.90;;;;;;5082081;28;20319;-66
2021/12/03 06:15:45;;;;;;;47.77;44.77;;;2.80;99.90;;;;;;5082830;28;20595;-63
2021/12/03 06:18:36;;;;;;;45.73;42.80;;;2.80;99.90;;;;;;5087409;28;20223;-59
2021/12/03 06:21:25;;;;;;;44.27;41.50;;;2.80;99.90;;;;;;5095850;28;20227;-66
2021/12/03 06:24:13;;;;;;;44.50;41.63;;;2.70;99.90;;;;;;5090907;28;20227;-64
2021/12/03 06:27:02;;;;;;;44.13;41.53;;;2.70;99.90;;;;;;5082285;28;20234;-66
2021/12/03 06:29:51;;;;;;;45.07;42.07;;;2.70;99.90;;;;;;5086336;28;20239;-63
2021/12/03 06:32:40;;;;;;;43.07;40.43;;;2.70;99.90;;;;;;5080447;28;20819;-64
2021/12/03 06:35:30;;;;;;;43.03;40.53;;;2.70;99.90;;;;;;5082971;28;20219;-65
2021/12/03 06:38:20;;;;;;;44.27;41.67;;;2.70;99.90;;;;;;5082223;28;20229;-65
2021/12/03 06:41:09;;;;;;;45.23;42.60;;;2.60;99.90;;;;;;5082053;28;20219;-63
2021/12/03 06:43:57;;;;;;;43.47;40.83;;;2.60;99.90;;;;;;5081467;28;20227;-66
2021/12/03 06:46:46;;;;;;;45.10;42.40;;;2.50;99.90;;;;;;5079254;28;20223;-63
2021/12/03 06:49:35;;;;;;;43.97;41.07;;;2.60;99.90;;;;;;5079922;28;20700;-65
2021/12/03 06:52:29;;;;;;;45.57;42.60;;;2.50;99.90;;;;;;5080745;28;20223;-65
2021/12/03 06:55:18;;;;;;;43.00;40.33;;;2.50;99.90;;;;;;5076693;28;20476;-66
2021/12/03 06:58:06;;;;;;;44.27;41.27;;;2.50;99.90;;;;;;5079856;28;20230;-65
2021/12/03 07:00:56;;;;;;;45.40;42.40;;;2.50;99.90;;;;;;5085136;27;20231;-65
2021/12/03 07:03:45;;;;;;;46.97;44.07;;;2.60;99.90;;;;;;5077691;28;20573;-66
2021/12/03 07:06:34;;;;;;;46.73;43.63;;;2.40;99.90;;;;;;5077374;28;20227;-66
2021/12/03 07:09:24;;;;;;;46.40;43.30;;;2.50;99.90;;;;;;5078778;28;20219;-63
2021/12/03 07:12:13;;;;;;;44.97;42.03;;;2.30;99.90;;;;;;5079846;28;20211;-66
2021/12/03 07:15:02;;;;;;;45.50;42.27;;;2.40;99.90;;;;;;5078524;28;20227;-66
2021/12/03 07:17:51;;;;;;;46.97;44.00;;;2.40;99.90;;;;;;5080632;28;20568;-66
2021/12/03 07:20:40;;;;;;;46.23;43.30;;;2.50;99.90;;;;;;5076912;28;20223;-66
2021/12/03 07:23:28;;;;;;;45.83;42.73;;;2.50;99.90;;;;;;5075251;28;20687;-65
2021/12/03 07:26:19;;;;;;;44.90;42.07;;;2.60;99.90;;;;;;5076238;28;20227;-65
2021/12/03 07:29:08;;;;;;;46.57;43.10;;;2.50;99.90;;;;;;5085920;28;20579;-65
2021/12/03 07:31:57;;;;;;;47.57;44.27;;;2.50;99.90;;;;;;5074880;28;20888;-67
2021/12/03 07:34:50;;;;;;;43.90;40.63;;;2.60;99.90;;;;;;5076904;28;20633;-67
2021/12/03 07:37:39;;;;;;;46.77;43.77;;;2.60;99.90;;;;;;5078214;28;20215;-67
2021/12/03 07:40:28;;;;;;;48.00;44.83;;;2.60;99.90;;;;;;5075613;28;20234;-65
2021/12/03 07:43:19;;;;;;;46.03;43.00;;;2.70;99.90;;;;;;5077883;28;20219;-67
2021/12/03 07:46:08;;;;;;;44.57;41.57;;;2.70;99.90;;;;;;5080488;27;20264;-70
2021/12/03 07:48:57;;;;;;;45.83;42.83;;;2.70;99.90;;;;;;5082947;28;20812;-69
2021/12/03 07:51:46;;;;;;;44.17;41.27;;;2.70;99.90;;;;;;5077646;28;20219;-65
2021/12/03 07:54:34;;;;;;;46.17;43.00;;;2.90;99.90;;;;;;5092592;28;20230;-64
2021/12/03 07:57:23;;;;;;;43.97;41.03;;;2.80;99.90;;;;;;5102633;28;20223;-64
2021/12/03 08:00:14;;;;;;;44.33;41.43;;;2.70;99.90;;;;;;5075540;28;20868;-65
2021/12/03 08:03:02;;;;;;;44.80;42.10;;;2.70;99.90;;;;;;5078809;28;20232;-66
2021/12/03 08:05:51;;;;;;;43.87;40.73;;;2.70;99.90;;;;;;5080485;28;20227;-65
2021/12/03 08:08:41;;;;;;;45.37;42.47;;;2.80;99.90;;;;;;5075918;28;20220;-64
2021/12/03 08:11:30;;;;;;;45.83;43.07;;;2.70;99.90;;;;;;5079064;28;20702;-64
2021/12/03 08:14:18;;;;;;;46.20;43.13;;;2.70;99.90;;;;;;5077204;28;20695;-64
2021/12/03 08:17:09;;;;;;;45.97;42.87;;;2.70;99.90;;;;;;5092680;28;21334;-64
2021/12/03 08:19:58;;;;;;;43.80;40.73;;;2.70;99.90;;;;;;5095394;28;20230;-66
2021/12/03 08:22:46;;;;;;;43.20;40.33;;;2.70;99.90;;;;;;5065075;28;20268;-65
2021/12/03 08:25:35;;;;;;;44.43;41.00;;;2.50;99.90;;;;;;5082182;28;20256;-65
2021/12/03 08:28:24;;;;;;;41.67;39.13;;;2.50;99.90;;;;;;5086827;28;20258;-65
2021/12/03 08:31:15;;;;;;;44.57;41.50;;;2.60;99.90;;;;;;5085370;28;20791;-65
2021/12/03 08:34:05;;;;;;;45.63;42.13;;;2.60;99.90;;;;;;5083204;28;20258;-64
2021/12/03 08:36:54;;;;;;;41.83;39.33;;;2.60;99.90;;;;;;5068948;28;20220;-65
2021/12/03 08:39:48;;;;;;;44.73;42.00;;;2.70;99.90;;;;;;5084972;28;20223;-64
2021/12/03 08:42:36;;;;;;;42.80;40.20;;;2.80;99.90;;;;;;5082887;28;20302;-66
2021/12/03 08:45:25;;;;;;;44.37;41.40;;;3.00;99.90;;;;;;5071276;28;20230;-63
2021/12/03 08:48:14;;;;;;;43.20;40.50;;;3.00;99.90;;;;;;5085688;27;20341;-64
2021/12/03 08:51:13;;;;;;;43.57;40.77;;;2.80;99.90;;;;;;5085683;28;20212;-66
2021/12/03 08:57:08;;;;;;;42.23;39.60;;;2.90;99.90;;;;;;5083143;28;20220;-64
2021/12/03 08:59:59;;;;;;;40.40;37.63;;;2.90;99.90;;;;;;5072315;28;20320;-66
2021/12/03 09:02:49;;;;;;;45.30;42.03;;;3.00;99.90;;;;;;5085572;27;20224;-64
2021/12/03 09:05:39;;;;;;;41.13;38.50;;;2.90;99.90;;;;;;5086044;28;20810;-65
2021/12/03 09:08:29;;;;;;;41.30;38.80;;;3.00;99.90;;;;;;5084100;28;20219;-65
2021/12/03 09:11:18;;;;;;;44.30;41.70;;;3.00;99.90;;;;;;5083689;28;20240;-68
2021/12/03 09:14:14;;;;;;;43.27;40.43;;;2.90;99.90;;;;;;5079426;28;20567;-65
2021/12/03 09:17:12;;;;;;;40.97;38.57;;;2.90;99.90;;;;;;5069181;28;20706;-65
2021/12/03 09:20:06;;;;;;;41.53;38.80;;;3.00;99.90;;;;;;5082537;27;20405;-65
2021/12/03 09:22:58;;;;;;;43.90;41.10;;;2.90;99.90;;;;;;5085168;28;20246;-64
2021/12/03 09:25:53;;;;;;;42.20;39.17;;;3.00;99.90;;;;;;5083730;28;20336;-65
2021/12/03 09:28:46;;;;;;;42.37;39.57;;;3.10;99.90;;;;;;5079291;28;20232;-64
2021/12/03 09:31:37;;;;;;;42.83;39.97;;;3.10;99.90;;;;;;5081162;28;20229;-64
2021/12/03 09:34:28;;;;;;;44.53;41.60;;;3.10;99.90;;;;;;5081238;28;20212;-65
2021/12/03 09:37:17;;;;;;;44.83;41.63;;;3.10;99.90;;;;;;5081992;28;20219;-63
2021/12/03 09:40:09;;;;;;;41.40;38.80;;;3.10;99.90;;;;;;5074848;28;20935;-65
2021/12/03 09:42:59;;;;;;;41.27;38.77;;;3.20;99.90;;;;;;5075105;28;20228;-66
2021/12/03 09:45:57;;;;;;;43.33;40.50;;;3.20;99.90;;;;;;5080364;28;20241;-65
2021/12/03 09:48:59;;;;;;;41.13;38.53;;;3.20;99.90;;;;;;5079956;28;20668;-65
2021/12/03 09:52:00;;;;;;;41.60;39.10;;;3.30;99.90;;;;;;5076797;28;20219;-65
2021/12/03 09:54:50;;;;;;;41.10;38.23;;;3.40;99.90;;;;;;5076275;28;20227;-66
2021/12/03 09:57:43;;;;;;;42.00;39.37;;;3.40;99.90;;;;;;5074778;28;20227;-66
2021/12/03 10:00:37;;;;;;;41.60;38.63;;;3.50;99.90;;;;;;5081008;28;20590;-64
2021/12/03 10:12:58;;;;;;;41.00;38.30;;;3.80;99.90;;;;;;5077740;28;20215;-64
2021/12/03 10:15:59;;;;;;;41.40;38.37;;;4.00;99.90;;;;;;5079939;28;20225;-64
2021/12/03 10:18:51;;;;;;;42.37;39.67;;;4.20;99.90;;;;;;5076849;28;20220;-64
2021/12/03 10:44:05;;;;;;;42.97;40.37;;;4.10;99.90;;;;;;5047620;28;20359;-64
2021/12/03 10:47:12;;;;;;;44.20;41.07;;;4.10;99.90;;;;;;5047198;28;20218;-64
2021/12/03 10:50:23;;;;;;;43.70;41.00;;;4.20;99.90;;;;;;5061061;28;21162;-64
2021/12/03 10:53:30;;;;;;;45.00;41.90;;;4.20;99.90;;;;;;5046140;28;20225;-65
2021/12/03 10:56:46;;;;;;;44.03;41.30;;;4.20;99.90;;;;;;5061737;28;20238;-64
2021/12/03 11:03:35;;;;;;;42.77;40.00;;;4.20;99.90;;;;;;5018729;28;20229;-65
2021/12/03 11:19:38;;;;;;;41.63;38.80;;;4.40;99.90;;;;;;5046965;28;20336;-65
2021/12/03 12:20:20;;;;;;;43.40;40.33;;;4.60;99.90;;;;;;5036771;28;20233;-64
2021/12/03 12:24:06;;;;;;;43.87;41.00;;;4.50;99.90;;;;;;5015498;28;20224;-64
2021/12/03 13:09:32;;;;;;;47.27;43.93;;;4.20;99.90;;;;;;5051869;28;20578;-64
2021/12/03 13:25:30;;;;;;;45.17;41.87;;;4.10;99.90;;;;;;5055081;28;20234;-65
2021/12/03 14:43:48;;;;;;;47.00;43.33;;;4.10;99.90;;;;;;5080495;28;20233;-64
2021/12/03 14:46:51;;;;;;;46.73;43.00;;;4.20;99.90;;;;;;5077901;28;20242;-64
2021/12/03 14:50:12;;;;;;;47.10;43.60;;;4.20;99.90;;;;;;5084529;28;20857;-65
2021/12/03 14:56:21;;;;;;;46.20;42.63;;;4.30;99.90;;;;;;5083013;28;21004;-66
2021/12/03 14:59:16;;;;;;;47.27;43.20;;;4.20;99.90;;;;;;5081627;28;20298;-66
2021/12/03 15:02:13;;;;;;;47.80;44.30;;;4.20;99.90;;;;;;5083291;28;20244;-65
2021/12/03 15:05:24;;;;;;;48.20;44.70;;;4.20;99.90;;;;;;5081004;28;20269;-65
2021/12/03 15:08:15;;;;;;;47.67;43.93;;;4.20;99.90;;;;;;5079761;28;20235;-68
2021/12/03 15:33:43;;;;;;;45.57;41.97;;;4.20;99.90;;;;;;5090387;28;20812;-66
2021/12/03 15:36:48;;;;;;;45.00;41.87;;;4.20;99.90;;;;;;5081640;28;20590;-65
2021/12/03 15:39:49;;;;;;;47.03;43.37;;;4.20;99.90;;;;;;5081718;28;20224;-63
2021/12/03 16:04:40;;;;;;;48.93;44.87;;;4.30;99.90;;;;;;5084096;28;20436;-65
2021/12/03 16:07:55;;;;;;;46.43;42.70;;;4.20;99.90;;;;;;5078247;28;20221;-65
2021/12/03 16:10:51;;;;;;;46.83;43.07;;;4.30;99.90;;;;;;5081741;28;20215;-65
2021/12/03 16:13:52;;;;;;;47.83;44.20;;;4.20;99.90;;;;;;5075915;28;20335;-65
2021/12/03 16:26:32;;;;;;;48.07;44.17;;;4.20;99.90;;;;;;5083232;28;20234;-65
2021/12/03 16:45:25;;;;;;;49.23;44.97;;;4.30;99.90;;;;;;5078561;28;20227;-67
2021/12/03 16:51:40;;;;;;;46.47;42.70;;;4.30;99.90;;;;;;5106412;28;20283;-65
2021/12/03 16:54:35;;;;;;;49.07;44.93;;;4.20;99.90;;;;;;5080688;28;20853;-65
2021/12/03 16:57:28;;;;;;;45.97;42.60;;;4.20;99.90;;;;;;5077697;28;20219;-64
2021/12/03 17:00:23;;;;;;;47.03;43.43;;;4.30;99.90;;;;;;5080637;28;20255;-64
2021/12/03 17:03:20;;;;;;;47.33;44.07;;;4.30;99.90;;;;;;5078722;28;20230;-67
2021/12/03 17:12:58;;;;;;;46.90;43.20;;;4.20;99.90;;;;;;5079697;28;20591;-63
2021/12/03 17:47:37;;;;;;;46.93;43.60;;;4.30;99.90;;;;;;5083414;28;20215;-66
2021/12/03 17:50:40;;;;;;;44.63;41.63;;;4.30;99.90;;;;;;5077721;28;20270;-65
2021/12/03 17:56:36;;;;;;;46.80;43.40;;;4.30;99.90;;;;;;5081394;28;20696;-64
2021/12/03 17:59:29;;;;;;;46.87;43.50;;;4.20;99.90;;;;;;5086258;28;20602;-64
2021/12/03 18:02:29;;;;;;;46.63;43.03;;;4.20;99.90;;;;;;5094056;28;20466;-66
2021/12/03 18:08:32;;;;;;;47.97;44.07;;;4.10;99.90;;;;;;5081778;28;20223;-66
2021/12/03 18:11:44;;;;;;;45.73;42.53;;;4.10;99.90;;;;;;5083832;28;20725;-65
2021/12/03 18:18:09;;;;;;;46.43;43.23;;;4.00;99.90;;;;;;5080779;28;20225;-65
2021/12/03 18:49:40;;;;;;;49.53;45.50;;;3.90;99.90;;;;;;5084630;28;20237;-66
2021/12/03 18:52:53;;;;;;;50.87;46.90;;;3.90;99.90;;;;;;5082470;28;20667;-64
2021/12/03 18:55:44;;;;;;;50.00;45.90;;;3.90;99.90;;;;;;5089575;28;20217;-64
2021/12/03 18:58:33;;;;;;;49.23;44.90;;;3.90;99.90;;;;;;5081215;28;20704;-64
2021/12/03 19:01:27;;;;;;;48.40;44.80;;;3.90;99.90;;;;;;5082774;28;20228;-65
2021/12/03 19:04:23;;;;;;;50.27;45.67;;;3.90;99.90;;;;;;5084614;28;20223;-66
2021/12/03 19:07:20;;;;;;;47.97;43.83;;;3.80;99.90;;;;;;5086350;28;20395;-66
2021/12/03 19:10:17;;;;;;;49.17;45.23;;;3.90;99.90;;;;;;5079116;28;20243;-66
2021/12/03 19:13:10;;;;;;;50.37;46.10;;;3.80;99.90;;;;;;5085274;28;20255;-64
2021/12/03 19:16:02;;;;;;;48.80;44.97;;;3.80;99.90;;;;;;5082682;28;20244;-66
2021/12/03 19:18:54;;;;;;;48.03;44.17;;;3.80;99.90;;;;;;5096302;28;20728;-66
2021/12/03 19:21:44;;;;;;;51.70;47.70;;;3.80;99.90;;;;;;5095562;28;20224;-64
2021/12/03 19:24:33;;;;;;;49.00;45.00;;;3.80;99.90;;;;;;5078171;28;20252;-66
2021/12/03 19:27:24;;;;;;;50.03;45.73;;;3.80;99.90;;;;;;5083248;28;20225;-66
2021/12/03 19:30:15;;;;;;;49.23;45.17;;;3.80;99.90;;;;;;5083922;28;20233;-64
2021/12/03 19:33:06;;;;;;;49.67;45.60;;;3.80;99.90;;;;;;5084033;28;20244;-66
2021/12/03 19:35:57;;;;;;;49.00;45.30;;;3.80;99.90;;;;;;5081589;28;20229;-69
2021/12/03 19:38:46;;;;;;;48.57;44.97;;;3.80;99.90;;;;;;5080637;28;20222;-64
2021/12/03 19:41:40;;;;;;;48.67;44.90;;;3.80;99.90;;;;;;5083927;28;20228;-67
2021/12/03 19:47:46;;;;;;;50.47;46.33;;;3.80;99.90;;;;;;5079267;28;20316;-63
2021/12/03 19:50:41;;;;;;;47.23;43.43;;;3.80;99.90;;;;;;5081442;28;20235;-66
2021/12/03 19:53:37;;;;;;;48.53;44.60;;;3.90;99.90;;;;;;5078716;28;20221;-66
2021/12/03 19:56:28;;;;;;;50.03;46.03;;;3.90;99.90;;;;;;5084774;28;20228;-65
2021/12/03 19:59:19;;;;;;;49.57;45.87;;;3.90;99.90;;;;;;5083755;28;20225;-64
2021/12/03 20:02:08;;;;;;;49.50;45.57;;;3.80;99.90;;;;;;5082453;28;20230;-65
2021/12/03 20:04:58;;;;;;;50.00;46.13;;;3.70;99.90;;;;;;5081337;28;20603;-65
2021/12/03 20:07:47;;;;;;;50.10;46.03;;;3.70;99.90;;;;;;5080000;28;20225;-67
2021/12/03 20:10:40;;;;;;;50.70;46.70;;;3.60;99.90;;;;;;5081582;28;20309;-64
2021/12/03 20:13:28;;;;;;;48.37;44.27;;;3.70;99.90;;;;;;5082917;28;20237;-67
2021/12/03 20:16:24;;;;;;;49.67;45.97;;;3.60;99.90;;;;;;5081348;28;20229;-63
2021/12/03 20:19:18;;;;;;;48.60;45.07;;;3.70;99.90;;;;;;5079421;28;20726;-66
2021/12/03 20:22:12;;;;;;;49.47;45.97;;;3.60;99.90;;;;;;5083159;28;20375;-65
2021/12/03 20:25:19;;;;;;;50.20;46.47;;;3.60;99.90;;;;;;5080834;28;20232;-67
2021/12/03 20:28:10;;;;;;;48.17;44.30;;;3.60;99.90;;;;;;5081290;28;20646;-65
2021/12/03 20:31:03;;;;;;;49.97;46.00;;;3.60;99.90;;;;;;5081011;28;20304;-65
2021/12/03 20:34:09;;;;;;;47.97;44.23;;;3.50;99.90;;;;;;5080850;28;20303;-65
2021/12/03 20:37:00;;;;;;;48.37;44.67;;;3.40;99.90;;;;;;5084977;28;20241;-64
2021/12/03 20:39:51;;;;;;;48.60;44.90;;;3.40;99.90;;;;;;5079138;28;20222;-66
2021/12/03 20:42:46;;;;;;;47.87;43.93;;;3.30;99.90;;;;;;5081222;28;20627;-63
2021/12/03 20:45:56;;;;;;;50.00;46.30;;;3.30;99.90;;;;;;5081035;28;20243;-65
2021/12/03 20:49:02;;;;;;;48.03;44.27;;;3.30;99.90;;;;;;5082400;28;20279;-65
2021/12/03 20:52:16;;;;;;;48.77;45.17;;;3.20;99.90;;;;;;5080224;28;20217;-66
2021/12/03 21:10:49;;;;;;;49.80;45.70;;;3.10;99.90;;;;;;5084876;28;20223;-66
2021/12/03 21:13:39;;;;;;;50.53;46.43;;;3.10;99.90;;;;;;5087159;28;20939;-63
2021/12/03 21:19:59;;;;;;;48.97;45.17;;;3.00;99.90;;;;;;5083193;28;20246;-64
2021/12/03 21:22:50;;;;;;;47.63;43.93;;;3.00;99.90;;;;;;5082267;28;20224;-65
2021/12/03 21:25:39;;;;;;;49.80;45.70;;;3.00;99.90;;;;;;5093167;28;20226;-65
2021/12/03 21:28:43;;;;;;;51.83;47.77;;;2.90;99.90;;;;;;5084057;28;20380;-65
2021/12/03 21:31:36;;;;;;;50.33;46.50;;;3.00;99.90;;;;;;5086302;28;20709;-67
2021/12/03 21:40:56;;;;;;;50.03;46.23;;;2.80;99.90;;;;;;5063977;28;20246;-65
2021/12/03 21:43:45;;;;;;;50.03;46.20;;;2.80;99.90;;;;;;5085945;28;20223;-65
2021/12/03 21:46:37;;;;;;;48.87;44.93;;;2.70;99.90;;;;;;5086175;28;20591;-64